sensor_id;sensor_type;location;lat;lon;timestamp;P1;durP1;ratioP1;P2;durP2;ratioP2
583;SDS011;27024;54.068;12.116;2023-04-05T00:00:28;9.48;;;3.78;;
583;SDS011;27024;54.068;12.116;2023-04-05T00:02:58;11.77;;;4.53;;
583;SDS011;27024;54.068;12.116;2023-04-05T00:05:26;11.65;;;5.05;;
583;SDS011;27024;54.068;12.116;2023-04-05T00:08:00;12.27;;;4.20;;
583;SDS011;27024;54.068;12.116;2023-04-05T00:10:28;7.28;;;2.97;;
583;SDS011;27024;54.068;12.116;2023-04-05T00:12:57;7.70;;;2.85;;
583;SDS011;27024;54.068;12.116;2023-04-05T00:15:24;5.75;;;2.25;;
583;SDS011;27024;54.068;12.116;2023-04-05T00:17:52;6.03;;;1.75;;
583;SDS011;27024;54.068;12.116;2023-04-05T00:20:22;6.90;;;1.70;;
583;SDS011;27024;54.068;12.116;2023-04-05T00:22:49;5.68;;;1.63;;
583;SDS011;27024;54.068;12.116;2023-04-05T00:25:16;4.70;;;1.55;;
583;SDS011;27024;54.068;12.116;2023-04-05T00:27:43;2.75;;;1.05;;
583;SDS011;27024;54.068;12.116;2023-04-05T00:30:10;4.68;;;1.30;;
583;SDS011;27024;54.068;12.116;2023-04-05T00:32:40;5.70;;;1.30;;
583;SDS011;27024;54.068;12.116;2023-04-05T00:35:07;3.15;;;1.20;;
583;SDS011;27024;54.068;12.116;2023-04-05T00:37:34;3.35;;;1.65;;
583;SDS011;27024;54.068;12.116;2023-04-05T00:40:01;3.88;;;1.05;;
583;SDS011;27024;54.068;12.116;2023-04-05T00:42:29;2.78;;;1.13;;
583;SDS011;27024;54.068;12.116;2023-04-05T00:44:56;4.15;;;0.82;;
583;SDS011;27024;54.068;12.116;2023-04-05T00:47:23;3.60;;;1.20;;
583;SDS011;27024;54.068;12.116;2023-04-05T00:49:50;4.45;;;1.20;;
583;SDS011;27024;54.068;12.116;2023-04-05T00:52:17;4.28;;;1.00;;
583;SDS011;27024;54.068;12.116;2023-04-05T00:54:48;2.97;;;1.25;;
583;SDS011;27024;54.068;12.116;2023-04-05T00:57:17;2.85;;;0.98;;
583;SDS011;27024;54.068;12.116;2023-04-05T00:59:43;2.67;;;0.95;;
583;SDS011;27024;54.068;12.116;2023-04-05T01:02:12;3.20;;;1.25;;
583;SDS011;27024;54.068;12.116;2023-04-05T01:04:46;3.67;;;0.73;;
583;SDS011;27024;54.068;12.116;2023-04-05T01:07:22;3.92;;;0.70;;
583;SDS011;27024;54.068;12.116;2023-04-05T01:09:57;3.92;;;1.20;;
583;SDS011;27024;54.068;12.116;2023-04-05T01:12:29;2.83;;;0.93;;
583;SDS011;27024;54.068;12.116;2023-04-05T01:14:59;3.35;;;0.90;;
583;SDS011;27024;54.068;12.116;2023-04-05T01:17:28;3.45;;;0.82;;
583;SDS011;27024;54.068;12.116;2023-04-05T01:20:03;2.92;;;0.65;;
583;SDS011;27024;54.068;12.116;2023-04-05T01:31:40;4.72;;;1.13;;
583;SDS011;27024;54.068;12.116;2023-04-05T01:36:52;3.20;;;0.80;;
583;SDS011;27024;54.068;12.116;2023-04-05T01:39:22;2.72;;;0.70;;
583;SDS011;27024;54.068;12.116;2023-04-05T01:41:50;2.42;;;0.80;;
583;SDS011;27024;54.068;12.116;2023-04-05T01:44:17;2.72;;;0.95;;
583;SDS011;27024;54.068;12.116;2023-04-05T01:46:44;3.15;;;0.77;;
583;SDS011;27024;54.068;12.116;2023-04-05T01:49:11;3.13;;;0.90;;
583;SDS011;27024;54.068;12.116;2023-04-05T01:51:38;3.40;;;1.35;;
583;SDS011;27024;54.068;12.116;2023-04-05T01:54:07;2.55;;;0.95;;
583;SDS011;27024;54.068;12.116;2023-04-05T01:56:34;3.65;;;1.20;;
583;SDS011;27024;54.068;12.116;2023-04-05T01:59:01;3.50;;;0.70;;
583;SDS011;27024;54.068;12.116;2023-04-05T02:01:28;2.30;;;1.00;;
583;SDS011;27024;54.068;12.116;2023-04-05T02:03:55;2.88;;;1.23;;
583;SDS011;27024;54.068;12.116;2023-04-05T02:06:22;3.08;;;0.90;;
583;SDS011;27024;54.068;12.116;2023-04-05T02:08:49;5.05;;;1.30;;
583;SDS011;27024;54.068;12.116;2023-04-05T02:11:16;3.00;;;1.10;;
583;SDS011;27024;54.068;12.116;2023-04-05T02:13:42;3.17;;;1.30;;
583;SDS011;27024;54.068;12.116;2023-04-05T02:16:09;3.85;;;0.93;;
583;SDS011;27024;54.068;12.116;2023-04-05T02:18:36;5.07;;;1.20;;
583;SDS011;27024;54.068;12.116;2023-04-05T02:21:04;3.42;;;1.20;;
583;SDS011;27024;54.068;12.116;2023-04-05T02:23:32;3.50;;;0.88;;
583;SDS011;27024;54.068;12.116;2023-04-05T02:26:00;4.38;;;1.02;;
583;SDS011;27024;54.068;12.116;2023-04-05T02:28:26;4.20;;;1.10;;
583;SDS011;27024;54.068;12.116;2023-04-05T02:30:53;5.50;;;1.33;;
583;SDS011;27024;54.068;12.116;2023-04-05T02:33:21;3.42;;;1.52;;
583;SDS011;27024;54.068;12.116;2023-04-05T02:35:49;5.55;;;1.55;;
583;SDS011;27024;54.068;12.116;2023-04-05T02:38:17;5.20;;;1.20;;
583;SDS011;27024;54.068;12.116;2023-04-05T02:40:47;3.55;;;1.42;;
583;SDS011;27024;54.068;12.116;2023-04-05T02:43:14;3.60;;;1.40;;
583;SDS011;27024;54.068;12.116;2023-04-05T02:45:41;5.35;;;1.65;;
583;SDS011;27024;54.068;12.116;2023-04-05T02:48:12;3.53;;;1.13;;
583;SDS011;27024;54.068;12.116;2023-04-05T02:50:38;4.38;;;1.90;;
583;SDS011;27024;54.068;12.116;2023-04-05T02:53:05;5.43;;;1.40;;
583;SDS011;27024;54.068;12.116;2023-04-05T02:55:32;4.68;;;1.60;;
583;SDS011;27024;54.068;12.116;2023-04-05T02:57:59;4.18;;;1.67;;
583;SDS011;27024;54.068;12.116;2023-04-05T03:00:27;4.32;;;1.13;;
583;SDS011;27024;54.068;12.116;2023-04-05T03:02:54;4.43;;;1.08;;
583;SDS011;27024;54.068;12.116;2023-04-05T03:05:22;4.03;;;1.40;;
583;SDS011;27024;54.068;12.116;2023-04-05T03:07:48;3.83;;;1.30;;
583;SDS011;27024;54.068;12.116;2023-04-05T03:10:18;5.32;;;1.60;;
583;SDS011;27024;54.068;12.116;2023-04-05T03:12:47;5.00;;;1.10;;
583;SDS011;27024;54.068;12.116;2023-04-05T03:15:16;2.78;;;1.40;;
583;SDS011;27024;54.068;12.116;2023-04-05T03:17:43;5.15;;;1.33;;
583;SDS011;27024;54.068;12.116;2023-04-05T03:20:11;4.13;;;1.38;;
583;SDS011;27024;54.068;12.116;2023-04-05T03:22:38;3.92;;;1.65;;
583;SDS011;27024;54.068;12.116;2023-04-05T03:25:06;4.50;;;1.65;;
583;SDS011;27024;54.068;12.116;2023-04-05T03:27:33;5.45;;;1.70;;
583;SDS011;27024;54.068;12.116;2023-04-05T03:30:00;6.00;;;1.80;;
583;SDS011;27024;54.068;12.116;2023-04-05T03:32:27;3.85;;;1.05;;
583;SDS011;27024;54.068;12.116;2023-04-05T03:34:57;3.45;;;1.40;;
583;SDS011;27024;54.068;12.116;2023-04-05T03:37:24;3.15;;;1.08;;
583;SDS011;27024;54.068;12.116;2023-04-05T03:39:50;4.40;;;1.20;;
583;SDS011;27024;54.068;12.116;2023-04-05T03:42:17;4.68;;;1.23;;
583;SDS011;27024;54.068;12.116;2023-04-05T03:44:44;3.42;;;1.52;;
583;SDS011;27024;54.068;12.116;2023-04-05T03:47:11;4.28;;;1.52;;
583;SDS011;27024;54.068;12.116;2023-04-05T03:49:38;3.47;;;1.55;;
583;SDS011;27024;54.068;12.116;2023-04-05T03:52:06;4.47;;;1.65;;
583;SDS011;27024;54.068;12.116;2023-04-05T03:54:34;3.60;;;1.52;;
583;SDS011;27024;54.068;12.116;2023-04-05T03:57:01;3.92;;;1.45;;
583;SDS011;27024;54.068;12.116;2023-04-05T03:59:28;4.47;;;1.55;;
583;SDS011;27024;54.068;12.116;2023-04-05T04:01:55;4.97;;;1.80;;
583;SDS011;27024;54.068;12.116;2023-04-05T04:04:22;3.78;;;1.50;;
583;SDS011;27024;54.068;12.116;2023-04-05T04:06:48;5.97;;;1.50;;
583;SDS011;27024;54.068;12.116;2023-04-05T04:09:16;4.43;;;1.67;;
583;SDS011;27024;54.068;12.116;2023-04-05T04:11:43;2.78;;;1.02;;
583;SDS011;27024;54.068;12.116;2023-04-05T04:14:09;4.75;;;1.48;;
583;SDS011;27024;54.068;12.116;2023-04-05T04:16:36;4.13;;;1.70;;
583;SDS011;27024;54.068;12.116;2023-04-05T04:19:03;4.78;;;1.30;;
583;SDS011;27024;54.068;12.116;2023-04-05T04:21:30;4.55;;;1.40;;
583;SDS011;27024;54.068;12.116;2023-04-05T04:23:57;4.30;;;2.00;;
583;SDS011;27024;54.068;12.116;2023-04-05T04:26:26;3.60;;;1.60;;
583;SDS011;27024;54.068;12.116;2023-04-05T04:28:54;4.63;;;1.58;;
583;SDS011;27024;54.068;12.116;2023-04-05T04:31:21;5.05;;;1.85;;
583;SDS011;27024;54.068;12.116;2023-04-05T04:33:49;3.97;;;1.50;;
583;SDS011;27024;54.068;12.116;2023-04-05T04:36:16;3.80;;;1.63;;
583;SDS011;27024;54.068;12.116;2023-04-05T04:38:44;3.78;;;1.48;;
583;SDS011;27024;54.068;12.116;2023-04-05T04:41:12;4.70;;;1.50;;
583;SDS011;27024;54.068;12.116;2023-04-05T04:43:39;3.60;;;1.48;;
583;SDS011;27024;54.068;12.116;2023-04-05T04:46:09;5.07;;;1.70;;
583;SDS011;27024;54.068;12.116;2023-04-05T04:48:40;4.40;;;1.65;;
583;SDS011;27024;54.068;12.116;2023-04-05T04:51:07;4.90;;;1.95;;
583;SDS011;27024;54.068;12.116;2023-04-05T04:53:34;4.45;;;1.80;;
583;SDS011;27024;54.068;12.116;2023-04-05T04:56:04;3.55;;;1.40;;
583;SDS011;27024;54.068;12.116;2023-04-05T04:58:32;4.85;;;2.22;;
583;SDS011;27024;54.068;12.116;2023-04-05T05:00:59;8.02;;;2.00;;
583;SDS011;27024;54.068;12.116;2023-04-05T05:03:26;8.20;;;2.08;;
583;SDS011;27024;54.068;12.116;2023-04-05T05:05:53;5.53;;;1.70;;
583;SDS011;27024;54.068;12.116;2023-04-05T05:08:20;5.38;;;1.95;;
583;SDS011;27024;54.068;12.116;2023-04-05T05:10:50;6.38;;;1.80;;
583;SDS011;27024;54.068;12.116;2023-04-05T05:13:20;5.65;;;1.95;;
583;SDS011;27024;54.068;12.116;2023-04-05T05:15:47;5.68;;;1.73;;
583;SDS011;27024;54.068;12.116;2023-04-05T05:18:14;3.85;;;1.60;;
583;SDS011;27024;54.068;12.116;2023-04-05T05:20:42;3.90;;;1.55;;
583;SDS011;27024;54.068;12.116;2023-04-05T05:23:09;5.63;;;1.90;;
583;SDS011;27024;54.068;12.116;2023-04-05T05:25:36;5.55;;;2.03;;
583;SDS011;27024;54.068;12.116;2023-04-05T05:28:04;5.22;;;2.13;;
583;SDS011;27024;54.068;12.116;2023-04-05T05:30:31;6.95;;;1.65;;
583;SDS011;27024;54.068;12.116;2023-04-05T05:32:58;5.30;;;1.77;;
583;SDS011;27024;54.068;12.116;2023-04-05T05:35:26;4.97;;;1.75;;
583;SDS011;27024;54.068;12.116;2023-04-05T05:37:53;7.07;;;1.88;;
583;SDS011;27024;54.068;12.116;2023-04-05T05:40:20;5.40;;;1.90;;
583;SDS011;27024;54.068;12.116;2023-04-05T05:42:47;6.82;;;2.28;;
583;SDS011;27024;54.068;12.116;2023-04-05T05:45:13;6.13;;;2.15;;
583;SDS011;27024;54.068;12.116;2023-04-05T05:47:40;4.53;;;2.38;;
583;SDS011;27024;54.068;12.116;2023-04-05T05:50:08;5.68;;;2.35;;
583;SDS011;27024;54.068;12.116;2023-04-05T05:52:35;5.90;;;2.60;;
583;SDS011;27024;54.068;12.116;2023-04-05T05:55:02;9.30;;;2.55;;
583;SDS011;27024;54.068;12.116;2023-04-05T05:57:29;8.02;;;2.35;;
583;SDS011;27024;54.068;12.116;2023-04-05T05:59:56;7.75;;;2.90;;
583;SDS011;27024;54.068;12.116;2023-04-05T06:02:23;6.32;;;2.60;;
583;SDS011;27024;54.068;12.116;2023-04-05T06:04:50;7.60;;;2.70;;
583;SDS011;27024;54.068;12.116;2023-04-05T06:07:18;6.03;;;2.60;;
583;SDS011;27024;54.068;12.116;2023-04-05T06:09:46;6.30;;;2.45;;
583;SDS011;27024;54.068;12.116;2023-04-05T06:12:13;8.23;;;2.92;;
583;SDS011;27024;54.068;12.116;2023-04-05T06:14:41;6.50;;;2.53;;
583;SDS011;27024;54.068;12.116;2023-04-05T06:17:07;12.60;;;2.75;;
583;SDS011;27024;54.068;12.116;2023-04-05T06:19:34;7.13;;;2.63;;
583;SDS011;27024;54.068;12.116;2023-04-05T06:22:01;7.93;;;2.70;;
583;SDS011;27024;54.068;12.116;2023-04-05T06:24:29;7.22;;;3.13;;
583;SDS011;27024;54.068;12.116;2023-04-05T06:26:57;10.20;;;3.00;;
583;SDS011;27024;54.068;12.116;2023-04-05T06:29:25;9.32;;;3.35;;
583;SDS011;27024;54.068;12.116;2023-04-05T06:31:53;10.27;;;3.17;;
583;SDS011;27024;54.068;12.116;2023-04-05T06:34:21;7.05;;;2.70;;
583;SDS011;27024;54.068;12.116;2023-04-05T06:36:48;11.32;;;3.30;;
583;SDS011;27024;54.068;12.116;2023-04-05T06:39:15;6.78;;;2.80;;
583;SDS011;27024;54.068;12.116;2023-04-05T06:41:42;6.25;;;3.13;;
583;SDS011;27024;54.068;12.116;2023-04-05T06:44:09;7.20;;;2.45;;
583;SDS011;27024;54.068;12.116;2023-04-05T06:46:36;10.23;;;3.05;;
583;SDS011;27024;54.068;12.116;2023-04-05T06:49:03;7.38;;;2.30;;
583;SDS011;27024;54.068;12.116;2023-04-05T06:51:30;7.43;;;3.20;;
583;SDS011;27024;54.068;12.116;2023-04-05T06:53:57;6.00;;;2.85;;
583;SDS011;27024;54.068;12.116;2023-04-05T06:56:24;6.65;;;2.58;;
583;SDS011;27024;54.068;12.116;2023-04-05T06:58:50;6.63;;;3.10;;
583;SDS011;27024;54.068;12.116;2023-04-05T07:01:18;6.05;;;2.45;;
583;SDS011;27024;54.068;12.116;2023-04-05T07:03:45;5.45;;;2.63;;
583;SDS011;27024;54.068;12.116;2023-04-05T07:06:12;6.18;;;2.30;;
583;SDS011;27024;54.068;12.116;2023-04-05T07:08:39;7.25;;;2.85;;
583;SDS011;27024;54.068;12.116;2023-04-05T07:11:05;6.30;;;3.22;;
583;SDS011;27024;54.068;12.116;2023-04-05T07:13:32;7.18;;;2.75;;
583;SDS011;27024;54.068;12.116;2023-04-05T07:16:00;6.03;;;3.05;;
583;SDS011;27024;54.068;12.116;2023-04-05T07:18:28;6.35;;;3.25;;
583;SDS011;27024;54.068;12.116;2023-04-05T07:20:56;9.40;;;3.55;;
583;SDS011;27024;54.068;12.116;2023-04-05T07:25:56;6.70;;;3.15;;
583;SDS011;27024;54.068;12.116;2023-04-05T07:28:28;5.80;;;3.25;;
583;SDS011;27024;54.068;12.116;2023-04-05T07:30:55;10.32;;;4.07;;
583;SDS011;27024;54.068;12.116;2023-04-05T07:33:22;7.93;;;3.80;;
583;SDS011;27024;54.068;12.116;2023-04-05T07:35:52;10.18;;;3.90;;
583;SDS011;27024;54.068;12.116;2023-04-05T07:38:20;7.95;;;3.90;;
583;SDS011;27024;54.068;12.116;2023-04-05T07:40:50;9.52;;;3.55;;
583;SDS011;27024;54.068;12.116;2023-04-05T07:43:17;7.82;;;3.95;;
583;SDS011;27024;54.068;12.116;2023-04-05T07:45:44;11.20;;;4.43;;
583;SDS011;27024;54.068;12.116;2023-04-05T07:48:11;8.65;;;4.13;;
583;SDS011;27024;54.068;12.116;2023-04-05T07:50:38;10.75;;;3.85;;
583;SDS011;27024;54.068;12.116;2023-04-05T07:53:06;7.60;;;4.22;;
583;SDS011;27024;54.068;12.116;2023-04-05T07:55:36;7.80;;;4.38;;
583;SDS011;27024;54.068;12.116;2023-04-05T07:58:03;8.57;;;4.43;;
583;SDS011;27024;54.068;12.116;2023-04-05T08:00:30;8.48;;;4.68;;
583;SDS011;27024;54.068;12.116;2023-04-05T08:02:57;8.98;;;4.57;;
583;SDS011;27024;54.068;12.116;2023-04-05T08:05:27;11.95;;;5.22;;
583;SDS011;27024;54.068;12.116;2023-04-05T08:07:54;9.00;;;4.30;;
583;SDS011;27024;54.068;12.116;2023-04-05T08:10:24;9.60;;;5.38;;
583;SDS011;27024;54.068;12.116;2023-04-05T08:12:51;11.02;;;5.38;;
583;SDS011;27024;54.068;12.116;2023-04-05T08:15:19;12.07;;;5.47;;
583;SDS011;27024;54.068;12.116;2023-04-05T08:17:46;12.40;;;6.03;;
583;SDS011;27024;54.068;12.116;2023-04-05T08:20:13;10.25;;;4.90;;
583;SDS011;27024;54.068;12.116;2023-04-05T08:22:40;10.48;;;4.78;;
583;SDS011;27024;54.068;12.116;2023-04-05T08:25:07;11.60;;;4.32;;
583;SDS011;27024;54.068;12.116;2023-04-05T08:27:34;9.10;;;4.65;;
583;SDS011;27024;54.068;12.116;2023-04-05T08:30:01;9.43;;;5.30;;
583;SDS011;27024;54.068;12.116;2023-04-05T08:32:29;10.68;;;4.90;;
583;SDS011;27024;54.068;12.116;2023-04-05T08:34:58;7.35;;;4.00;;
583;SDS011;27024;54.068;12.116;2023-04-05T08:37:25;9.27;;;4.57;;
583;SDS011;27024;54.068;12.116;2023-04-05T08:39:53;9.07;;;4.60;;
583;SDS011;27024;54.068;12.116;2023-04-05T08:42:28;9.75;;;4.55;;
583;SDS011;27024;54.068;12.116;2023-04-05T08:45:04;8.35;;;5.00;;
583;SDS011;27024;54.068;12.116;2023-04-05T08:47:35;10.43;;;4.97;;
583;SDS011;27024;54.068;12.116;2023-04-05T08:50:04;10.48;;;5.15;;
583;SDS011;27024;54.068;12.116;2023-04-05T08:52:32;9.27;;;4.43;;
583;SDS011;27024;54.068;12.116;2023-04-05T08:55:04;9.60;;;4.45;;
583;SDS011;27024;54.068;12.116;2023-04-05T08:57:31;11.75;;;4.45;;
583;SDS011;27024;54.068;12.116;2023-04-05T09:00:02;8.55;;;4.22;;
583;SDS011;27024;54.068;12.116;2023-04-05T09:02:30;6.68;;;3.75;;
583;SDS011;27024;54.068;12.116;2023-04-05T09:04:58;8.50;;;3.67;;
583;SDS011;27024;54.068;12.116;2023-04-05T09:07:26;7.75;;;4.25;;
583;SDS011;27024;54.068;12.116;2023-04-05T09:09:56;7.57;;;3.63;;
583;SDS011;27024;54.068;12.116;2023-04-05T09:12:25;7.90;;;3.72;;
583;SDS011;27024;54.068;12.116;2023-04-05T09:14:53;7.50;;;4.25;;
583;SDS011;27024;54.068;12.116;2023-04-05T09:17:21;8.68;;;3.97;;
583;SDS011;27024;54.068;12.116;2023-04-05T09:19:48;7.03;;;3.97;;
583;SDS011;27024;54.068;12.116;2023-04-05T09:22:15;9.73;;;4.20;;
583;SDS011;27024;54.068;12.116;2023-04-05T09:24:45;10.02;;;4.40;;
583;SDS011;27024;54.068;12.116;2023-04-05T09:27:14;8.88;;;4.28;;
583;SDS011;27024;54.068;12.116;2023-04-05T09:29:43;7.45;;;3.97;;
583;SDS011;27024;54.068;12.116;2023-04-05T09:32:12;7.35;;;3.80;;
583;SDS011;27024;54.068;12.116;2023-04-05T09:34:40;7.88;;;3.83;;
583;SDS011;27024;54.068;12.116;2023-04-05T09:37:14;7.97;;;3.22;;
583;SDS011;27024;54.068;12.116;2023-04-05T09:39:46;6.57;;;3.35;;
583;SDS011;27024;54.068;12.116;2023-04-05T09:42:17;6.55;;;3.58;;
583;SDS011;27024;54.068;12.116;2023-04-05T09:47:20;7.65;;;3.80;;
583;SDS011;27024;54.068;12.116;2023-04-05T09:49:57;8.25;;;3.30;;
583;SDS011;27024;54.068;12.116;2023-04-05T09:52:25;9.05;;;3.55;;
583;SDS011;27024;54.068;12.116;2023-04-05T09:55:00;7.35;;;3.53;;
583;SDS011;27024;54.068;12.116;2023-04-05T09:57:34;7.38;;;3.83;;
583;SDS011;27024;54.068;12.116;2023-04-05T10:00:06;8.82;;;3.53;;
583;SDS011;27024;54.068;12.116;2023-04-05T10:02:46;5.25;;;2.50;;
583;SDS011;27024;54.068;12.116;2023-04-05T10:07:44;4.78;;;2.20;;
583;SDS011;27024;54.068;12.116;2023-04-05T10:10:11;6.93;;;2.72;;
583;SDS011;27024;54.068;12.116;2023-04-05T10:12:39;5.75;;;2.55;;
583;SDS011;27024;54.068;12.116;2023-04-05T10:15:07;5.95;;;2.35;;
583;SDS011;27024;54.068;12.116;2023-04-05T10:17:38;5.07;;;2.47;;
583;SDS011;27024;54.068;12.116;2023-04-05T10:20:16;8.13;;;2.83;;
583;SDS011;27024;54.068;12.116;2023-04-05T10:25:23;8.07;;;3.03;;
583;SDS011;27024;54.068;12.116;2023-04-05T10:27:56;7.90;;;3.35;;
583;SDS011;27024;54.068;12.116;2023-04-05T10:30:35;4.72;;;2.53;;
583;SDS011;27024;54.068;12.116;2023-04-05T10:33:15;4.95;;;2.10;;
583;SDS011;27024;54.068;12.116;2023-04-05T10:36:07;5.10;;;2.33;;
583;SDS011;27024;54.068;12.116;2023-04-05T10:41:46;5.70;;;2.80;;
583;SDS011;27024;54.068;12.116;2023-04-05T10:44:14;8.65;;;3.90;;
583;SDS011;27024;54.068;12.116;2023-04-05T10:46:52;6.63;;;3.60;;
583;SDS011;27024;54.068;12.116;2023-04-05T10:54:29;8.48;;;3.95;;
583;SDS011;27024;54.068;12.116;2023-04-05T10:56:59;8.35;;;3.80;;
583;SDS011;27024;54.068;12.116;2023-04-05T10:59:28;8.52;;;4.35;;
583;SDS011;27024;54.068;12.116;2023-04-05T11:01:56;6.22;;;3.35;;
583;SDS011;27024;54.068;12.116;2023-04-05T11:04:24;8.40;;;4.55;;
583;SDS011;27024;54.068;12.116;2023-04-05T11:09:52;9.38;;;4.65;;
583;SDS011;27024;54.068;12.116;2023-04-05T11:18:06;9.07;;;5.05;;
583;SDS011;27024;54.068;12.116;2023-04-05T11:20:47;7.88;;;3.90;;
583;SDS011;27024;54.068;12.116;2023-04-05T11:23:22;7.28;;;4.97;;
583;SDS011;27024;54.068;12.116;2023-04-05T11:26:08;9.05;;;4.03;;
583;SDS011;27024;54.068;12.116;2023-04-05T11:28:36;8.38;;;4.20;;
583;SDS011;27024;54.068;12.116;2023-04-05T11:31:14;7.65;;;3.58;;
583;SDS011;27024;54.068;12.116;2023-04-05T11:41:57;6.78;;;4.03;;
583;SDS011;27024;54.068;12.116;2023-04-05T11:44:24;9.50;;;5.47;;
583;SDS011;27024;54.068;12.116;2023-04-05T11:46:51;6.97;;;3.97;;
583;SDS011;27024;54.068;12.116;2023-04-05T11:49:23;9.10;;;4.38;;
583;SDS011;27024;54.068;12.116;2023-04-05T11:54:36;6.82;;;3.38;;
583;SDS011;27024;54.068;12.116;2023-04-05T11:57:03;6.32;;;3.45;;
583;SDS011;27024;54.068;12.116;2023-04-05T11:59:34;7.32;;;3.92;;
583;SDS011;27024;54.068;12.116;2023-04-05T12:02:02;4.78;;;3.00;;
583;SDS011;27024;54.068;12.116;2023-04-05T12:04:31;3.40;;;2.08;;
583;SDS011;27024;54.068;12.116;2023-04-05T12:07:15;4.55;;;2.20;;
583;SDS011;27024;54.068;12.116;2023-04-05T12:09:56;3.38;;;1.95;;
583;SDS011;27024;54.068;12.116;2023-04-05T12:15:01;6.18;;;2.70;;
583;SDS011;27024;54.068;12.116;2023-04-05T12:20:13;5.60;;;3.10;;
583;SDS011;27024;54.068;12.116;2023-04-05T12:22:42;6.18;;;2.72;;
583;SDS011;27024;54.068;12.116;2023-04-05T12:25:10;5.97;;;3.75;;
583;SDS011;27024;54.068;12.116;2023-04-05T12:27:41;6.93;;;3.17;;
583;SDS011;27024;54.068;12.116;2023-04-05T12:30:08;6.60;;;3.85;;
583;SDS011;27024;54.068;12.116;2023-04-05T12:32:39;6.60;;;3.75;;
583;SDS011;27024;54.068;12.116;2023-04-05T12:35:15;8.45;;;3.65;;
583;SDS011;27024;54.068;12.116;2023-04-05T12:37:44;6.47;;;3.60;;
583;SDS011;27024;54.068;12.116;2023-04-05T12:40:12;7.05;;;3.45;;
583;SDS011;27024;54.068;12.116;2023-04-05T12:42:39;6.55;;;3.58;;
583;SDS011;27024;54.068;12.116;2023-04-05T12:45:10;7.32;;;4.03;;
583;SDS011;27024;54.068;12.116;2023-04-05T12:50:19;6.40;;;3.03;;
583;SDS011;27024;54.068;12.116;2023-04-05T12:52:52;8.15;;;3.90;;
583;SDS011;27024;54.068;12.116;2023-04-05T12:55:27;6.82;;;3.17;;
583;SDS011;27024;54.068;12.116;2023-04-05T12:57:55;7.60;;;3.00;;
583;SDS011;27024;54.068;12.116;2023-04-05T13:00:26;6.78;;;4.10;;
583;SDS011;27024;54.068;12.116;2023-04-05T13:02:55;6.38;;;3.75;;
583;SDS011;27024;54.068;12.116;2023-04-05T13:05:26;6.78;;;3.97;;
583;SDS011;27024;54.068;12.116;2023-04-05T13:07:55;12.30;;;6.05;;
583;SDS011;27024;54.068;12.116;2023-04-05T13:10:23;10.52;;;6.22;;
583;SDS011;27024;54.068;12.116;2023-04-05T13:12:51;10.48;;;5.28;;
583;SDS011;27024;54.068;12.116;2023-04-05T13:15:18;12.70;;;6.07;;
583;SDS011;27024;54.068;12.116;2023-04-05T13:17:45;11.48;;;5.97;;
583;SDS011;27024;54.068;12.116;2023-04-05T13:20:15;9.85;;;6.38;;
583;SDS011;27024;54.068;12.116;2023-04-05T13:22:46;10.43;;;4.97;;
583;SDS011;27024;54.068;12.116;2023-04-05T13:25:13;8.65;;;5.15;;
583;SDS011;27024;54.068;12.116;2023-04-05T13:27:40;8.15;;;4.00;;
583;SDS011;27024;54.068;12.116;2023-04-05T13:30:08;8.98;;;4.70;;
583;SDS011;27024;54.068;12.116;2023-04-05T13:32:35;9.15;;;6.00;;
583;SDS011;27024;54.068;12.116;2023-04-05T13:35:02;9.05;;;4.55;;
583;SDS011;27024;54.068;12.116;2023-04-05T13:37:29;8.85;;;5.18;;
583;SDS011;27024;54.068;12.116;2023-04-05T13:39:56;11.45;;;5.57;;
583;SDS011;27024;54.068;12.116;2023-04-05T13:42:23;9.10;;;5.55;;
583;SDS011;27024;54.068;12.116;2023-04-05T13:44:50;10.20;;;5.72;;
583;SDS011;27024;54.068;12.116;2023-04-05T13:47:16;8.80;;;5.43;;
583;SDS011;27024;54.068;12.116;2023-04-05T13:49:43;8.57;;;4.15;;
583;SDS011;27024;54.068;12.116;2023-04-05T13:52:10;8.25;;;4.13;;
583;SDS011;27024;54.068;12.116;2023-04-05T13:54:37;7.32;;;3.28;;
583;SDS011;27024;54.068;12.116;2023-04-05T13:57:04;7.28;;;3.17;;
583;SDS011;27024;54.068;12.116;2023-04-05T13:59:31;9.45;;;3.83;;
583;SDS011;27024;54.068;12.116;2023-04-05T14:01:58;8.05;;;4.75;;
583;SDS011;27024;54.068;12.116;2023-04-05T14:04:26;10.77;;;5.45;;
583;SDS011;27024;54.068;12.116;2023-04-05T14:06:54;14.63;;;6.13;;
583;SDS011;27024;54.068;12.116;2023-04-05T14:09:20;11.75;;;6.32;;
583;SDS011;27024;54.068;12.116;2023-04-05T14:11:47;14.15;;;5.93;;
583;SDS011;27024;54.068;12.116;2023-04-05T14:14:14;9.40;;;5.55;;
583;SDS011;27024;54.068;12.116;2023-04-05T14:16:41;13.20;;;8.13;;
583;SDS011;27024;54.068;12.116;2023-04-05T14:19:08;12.35;;;5.95;;
583;SDS011;27024;54.068;12.116;2023-04-05T14:21:35;12.13;;;6.57;;
583;SDS011;27024;54.068;12.116;2023-04-05T14:24:02;14.05;;;8.25;;
583;SDS011;27024;54.068;12.116;2023-04-05T14:26:29;13.63;;;7.20;;
583;SDS011;27024;54.068;12.116;2023-04-05T14:28:56;11.88;;;6.97;;
583;SDS011;27024;54.068;12.116;2023-04-05T14:31:23;11.40;;;6.70;;
583;SDS011;27024;54.068;12.116;2023-04-05T14:33:53;13.43;;;6.80;;
583;SDS011;27024;54.068;12.116;2023-04-05T14:36:19;11.90;;;6.75;;
583;SDS011;27024;54.068;12.116;2023-04-05T14:38:46;9.05;;;5.57;;
583;SDS011;27024;54.068;12.116;2023-04-05T14:41:13;13.57;;;7.20;;
583;SDS011;27024;54.068;12.116;2023-04-05T14:43:40;9.35;;;5.35;;
583;SDS011;27024;54.068;12.116;2023-04-05T14:46:07;11.48;;;5.40;;
583;SDS011;27024;54.068;12.116;2023-04-05T14:48:34;11.60;;;6.18;;
583;SDS011;27024;54.068;12.116;2023-04-05T14:51:03;10.30;;;5.57;;
583;SDS011;27024;54.068;12.116;2023-04-05T14:53:30;12.77;;;6.05;;
583;SDS011;27024;54.068;12.116;2023-04-05T14:55:57;12.95;;;7.28;;
583;SDS011;27024;54.068;12.116;2023-04-05T14:58:23;10.95;;;5.57;;
583;SDS011;27024;54.068;12.116;2023-04-05T15:00:50;8.73;;;5.22;;
583;SDS011;27024;54.068;12.116;2023-04-05T15:03:18;9.55;;;5.32;;
583;SDS011;27024;54.068;12.116;2023-04-05T15:05:46;8.32;;;5.40;;
583;SDS011;27024;54.068;12.116;2023-04-05T15:08:13;8.10;;;4.38;;
583;SDS011;27024;54.068;12.116;2023-04-05T15:10:41;10.02;;;4.07;;
583;SDS011;27024;54.068;12.116;2023-04-05T15:13:08;8.52;;;3.60;;
583;SDS011;27024;54.068;12.116;2023-04-05T15:15:36;6.53;;;3.47;;
583;SDS011;27024;54.068;12.116;2023-04-05T15:18:03;7.63;;;3.35;;
583;SDS011;27024;54.068;12.116;2023-04-05T15:20:30;7.43;;;3.70;;
583;SDS011;27024;54.068;12.116;2023-04-05T15:22:57;5.03;;;2.22;;
583;SDS011;27024;54.068;12.116;2023-04-05T15:25:25;5.85;;;2.83;;
583;SDS011;27024;54.068;12.116;2023-04-05T15:27:52;5.57;;;2.50;;
583;SDS011;27024;54.068;12.116;2023-04-05T15:30:20;8.75;;;2.53;;
583;SDS011;27024;54.068;12.116;2023-04-05T15:32:47;4.68;;;2.40;;
583;SDS011;27024;54.068;12.116;2023-04-05T15:35:14;5.28;;;2.50;;
583;SDS011;27024;54.068;12.116;2023-04-05T15:37:41;4.93;;;2.50;;
583;SDS011;27024;54.068;12.116;2023-04-05T15:40:09;5.63;;;2.60;;
583;SDS011;27024;54.068;12.116;2023-04-05T15:42:37;5.18;;;2.95;;
583;SDS011;27024;54.068;12.116;2023-04-05T15:45:04;4.93;;;2.60;;
583;SDS011;27024;54.068;12.116;2023-04-05T15:47:36;4.22;;;2.60;;
583;SDS011;27024;54.068;12.116;2023-04-05T15:50:05;4.10;;;2.60;;
583;SDS011;27024;54.068;12.116;2023-04-05T15:52:34;6.28;;;2.90;;
583;SDS011;27024;54.068;12.116;2023-04-05T15:55:03;5.13;;;2.60;;
583;SDS011;27024;54.068;12.116;2023-04-05T15:57:31;5.30;;;2.65;;
583;SDS011;27024;54.068;12.116;2023-04-05T15:59:58;5.00;;;3.17;;
583;SDS011;27024;54.068;12.116;2023-04-05T16:02:25;5.70;;;3.75;;
583;SDS011;27024;54.068;12.116;2023-04-05T16:04:53;4.63;;;2.28;;